Ride Results

Oz Endurance October (04-10-2009)
Ride distance: 80.0 km

Outcomes - Oz Endurance October (04-10-2009)
Division No. of Entries Retired / DNE Completed Withdrawn Ineligible V/O Percentage Completed
HW 4 - 4 - - - 100.00%
MW 14 - 14 - - - 100.00%
LW 12 - 12 - - - 100.00%
JN 6 - 5 - - 1 83.33%
Totals 36 - 35 - - 1 97.22%
Results - Oz Endurance October (04-10-2009)
No. Rider Horse Place Time Leg Speeds Total
Km/Hr
H/R bpm
Heavyweight
28 Paul Lengronne Cherox Kariim 1 (BC) 5:05:00 16.0, 14.7, 18.0 15.74 37, 46, 53, 56 (Avg:51)
30 Niels Lochtenberg Matta Mia Dollar 2 6:16:00 13.3, 12.0, 13.3 12.77 38, 44, 46, 48 (Avg:46)
7 Matthew Gadsby Judstan Roseanne 3 6:45:00 13.5, 10.4, 12.2 11.85 42, 50, 58, 59 (Avg:55)
25 Dominic Ryan Kholonial Amigo 4 7:13:00 12.5, 10.2, 10.1 11.09 40, 47, 46, 55 (Avg:49)
Middleweight
12 Simone Krahnen Ardai 1 4:49:00 16.4, 15.4, 21.8 16.61 48, 51, 50, 51 (Avg:50)
8 Gayle Holmes Captain's Creek Rupert 2 (BC) 4:56:00 15.9, 14.8, 23.2 16.22 37, 45, 47, 44 (Avg:45)
29 Marion Lengronne Sundust Frisco 2 4:56:00 16.0, 14.7, 23.2 16.22 37, 45, 49, 54 (Avg:49)
23 Jan Tyrrell Lanamere Romeo 4 4:57:00 15.9, 14.8, 22.5 16.16 40, 52, 45, 47 (Avg:48)
24 Penny Toft Magnum 5 6:17:00 13.5, 11.6, 14.1 12.73 31, 46, 44, 44 (Avg:44)
10 Angela Waldock Anzaq 6 6:27:00 12.5, 12.6, 11.2 12.40 32, 41, 42, 45 (Avg:42)
33 Donna Brooker Hirstglen Mack 7 6:30:00 12.6, 11.5, 13.8 12.31 36, 37, 44, 43 (Avg:41)
27 Bridget Nottle Otis te 8 6:34:00 12.6, 11.3, 13.3 12.18 39, 46, 52, 50 (Avg:49)
37 Carolyn Strahan Georgia 9 6:44:00 12.6, 11.0, 12.4 11.88 36, 43, 45, 45 (Avg:44)
1 David Cleland Lilla 10 6:45:00 12.5, 10.6, 14.1 11.85 37, 46, 49, 45 (Avg:46)
36 Joy Craig Kynnum Park Winter Wind 10 6:45:00 12.5, 11.1, 12.2 11.85 36, 40, 54, 43 (Avg:45)
5 Pierre DeWit Capers te 12 7:13:00 11.6, 10.1, 12.4 11.09 44, 46, 47, 48 (Avg:47)
17 Brook Sample Brookleigh Bravo 12 7:13:00 12.2, 10.4, 10.2 11.09 40, 40, 41, 43 (Avg:41)
16 Jo Hamilton-Branigan Abrock Noah 14 8:11:00 11.6, 8.6, 9.1 9.78 34, 41, 47, 44 (Avg:44)
Lightweight
2 Karen Fields Jayhal Shah 1 (BC) 4:58:00 17.2, 14.3, 18.9 16.11 34, 46, 47, 46 (Avg:46)
6 Clare Fleming Birramalee Queen of Hearts 1 4:58:00 17.2, 14.3, 18.9 16.11 45, 48, 44, 47 (Avg:46)
31 Bobbi Lochtenberg Matta Mia Dayman 3 6:29:00 12.7, 12.2, 11.4 12.34 39, 42, 44, 44 (Avg:43)
26 Emma Masters Centre Fold te 4 6:36:00 12.6, 11.3, 13.0 12.12 35, 49, 59, 47 (Avg:51)
3 Jenna Arnett McKahu 5 7:13:00 11.6, 10.1, 12.4 11.09 39, 44, 43, 48 (Avg:45)
20 Celine Honore Gheerulla Espresso 5 7:13:00 12.2, 9.9, 11.9 11.09 41, 42, 42, 44 (Avg:42)
4 Sarah Howe Lulu te 5 7:13:00 11.6, 10.1, 12.4 11.09 44, 41, 50, 45 (Avg:45)
22 Shelley-ann Kimber Brookleigh Jolien 5 7:13:00 12.2, 10.4, 10.2 11.09 35, 40, 39, 42 (Avg:40)
19 Jess Langridge Brookleigh Diablo 5 7:13:00 12.2, 10.4, 10.2 11.09 42, 42, 43, 43 (Avg:42)
21 Kaylea Maher Chance 5 7:13:00 12.2, 10.4, 10.2 11.09 39, 39, 40, 40 (Avg:39)
18 Jean Walsh Brookleigh Quasar 5 7:13:00 12.2, 10.4, 10.2 11.09 36, 44, 45, 48 (Avg:45)
15 Sonya Ryan Cameo Apassionataa 12 8:11:00 11.6, 8.6, 9.1 9.78 39, 37, 39, 41 (Avg:39)
Junior
11 Amaya Thomas Jessie Ima James 1 6:04:00 12.5, 12.6, 17.5 13.19 34, 43, 49, 48 (Avg:46)
13 Erin Krahnen Cinderella te 2 (BC) 6:11:00 13.5, 11.6, 15.9 12.94 38, 51, 52, 45 (Avg:49)
32 Tasha Jeremy Hirstglen Tallahasse Lasse 3 6:30:00 12.6, 11.5, 13.8 12.31 40, 41, 50, 47 (Avg:46)
9 Colleen Krahnen Tora Karlaya 4 7:13:00 11.6, 10.1, 12.4 11.09 36, 41, 40, 40 (Avg:40)
14 Alexandra Toft Emily Jones TE 4 7:13:00 11.6, 10.1, 12.4 11.09 30, 40, 40, 42 (Avg:40)
35 Jessica Weismann Hirstglen Cadillac Jack Lame L2 0:00:00 12.6, 11.5 - 46, 45, 55 (Avg:50)